Terminal Aerodrome Forecast
Issued by NWS Tampa Bay Area, FL

Home | Current Version | Previous Version | Text Only | Print | Product List | Glossary Off
Versions: 1 2 3 4 5 6 7 8 9 10 11 12

226
FTUS42 KTBW 301125
TAFSRQ
TAF
KSRQ 301125Z 3012/0112 12005KT P6SM FEW250
     FM301600 17009KT P6SM FEW250
     FM301900 21010G15KT P6SM FEW050 SCT100
     FM302100 27006KT P6SM FEW060 SCT100
     FM010200 VRB04KT P6SM FEW070
     FM010400 10004KT P6SM FEW250=

USA.gov is the U.S. government's official web portal to all federal, state and local government web resources and services.